Airfield :
LOGIN :

Register | Disclaimer

   EN    FR    IT 

 










Legend :    VFR   Marginal VFR   IFR   Intensive IFR   Very Intensive IFR
Visi :
Ceiling :
>= 8 km
>= 3000ft
5 to 8 km
1000 to 3000 ft
1500m to 5 km
500 to 1000 ft
800 to 1500m
200 to 500 ft
< 800m
< 200 ft
Symbols :   Thunderstorms  Fog  Heavy snow  Heavy precipitations  Wind > 20 kt
SIGMETs :     Misc.  Thunderstorms  Icing  Turbulence  Mountain Waves  Volcanic Ashes






- Airport Elevation : 273 ft


EGXT - RAF Wittering Stamford

CURRENT METAR :
  • 101450Z AUTO 28014KT 9999 FEW034/// BKN060/// 17/08 Q1018

EXPIRED METARs :
  • 101350Z 29014KT 9999 -RA FEW035 BKN050 15/08 Q1018 RMK BLU
  • 101250Z 30014KT 9999 FEW030 BKN050 16/09 Q1017 RMK BLU

TAF TAF EGXT
Valid from the 10 at 12:00 until the 10 at 17:00 UTC


101026Z 1012/1017 30013KT 9999 SCT025
TEMPO 1012/1017 6000 SHRA
PROB30
TEMPO 1012/1017 4000 +SHRA BKN030CB



MET'MAP, your aeronautical weather chart ! - Copyright ORBIFLY December 2007 - Disclaimer

ORBIFLY MET'MAP TEAM :

Programming & Development : Alexandra Zaïnal
Concept & original design : Baudouin d'Aumeries
Assistance for programming : Marc-Olivier Méhu
Technical & hardware support : Manuel Goepfert

Contact : metmap@orbifly.com




SOURCES & CREDITS :

   NOAA